Terminal Aerodrome Forecast
Issued by NWS

Home | Current Version | Previous Version | Text Only | Print | Product List | Glossary On
Versions: 1 2 3 4 5 6 7 8 9 10 11 12 13 14
000
FTUS46 KPDT 260522
TAFYKM
TAF
KYKM 260522Z 2606/2706 31011KT P6SM SKC
     FM261000 31007KT P6SM SCT150 BKN220
     FM261900 32009KT P6SM SCT250
     FM270000 32014G24KT P6SM SCT250=

USA.gov is the U.S. government's official web portal to all federal, state and local government web resources and services.